Time;durP1;ratioP1;P1;durP2;ratioP2;P2;SDS_P1;SDS_P2;PMS_P1;PMS_P2;Temp;Humidity;BMP_temperature;BMP_pressure;BME280_temperature;BME280_humidity;BME280_pressure;Samples;Min_cycle;Max_cycle;Signal;HPM_P1;HPM_P2
2021/12/11 00:00:08;;;;;;;21.27;13.65;;;;;;;0.51;70.81;96471.09;9787885;30;20519;-80
2021/12/11 00:05:43;;;;;;;20.90;14.38;;;;;;;0.43;70.92;96482.13;9789608;30;20056;-80
2021/12/11 00:11:13;;;;;;;24.23;15.82;;;;;;;0.43;70.28;96478.66;9800425;30;20100;-80
2021/12/11 00:16:35;;;;;;;21.13;13.40;;;;;;;0.48;70.10;96483.94;9787621;30;20098;-80
2021/12/11 00:22:24;;;;;;;21.42;14.23;;;;;;;0.49;70.29;96485.38;9788192;30;20048;-80
2021/12/11 00:27:47;;;;;;;25.48;14.10;;;;;;;0.50;71.06;96491.63;9775605;30;20508;-80
2021/12/11 00:33:23;;;;;;;23.10;14.02;;;;;;;0.53;70.21;96491.22;9787238;30;20052;-80
2021/12/11 00:38:47;;;;;;;21.45;14.55;;;;;;;0.50;70.58;96502.59;9786176;30;20152;-80
2021/12/11 00:44:08;;;;;;;20.98;13.63;;;;;;;0.54;70.66;96516.66;9787106;30;20459;-80
2021/12/11 00:49:29;;;;;;;21.65;14.07;;;;;;;0.53;70.57;96523.44;9786908;30;20052;-80
2021/12/11 00:54:51;;;;;;;20.27;13.60;;;;;;;0.59;70.29;96529.47;9786211;30;20055;-80
2021/12/11 01:00:14;;;;;;;19.65;13.90;;;;;;;0.58;70.54;96541.72;9786543;30;20457;-80
2021/12/11 01:05:39;;;;;;;18.30;12.60;;;;;;;0.63;70.40;96551.03;9786042;30;20451;-80
2021/12/11 01:11:08;;;;;;;17.83;12.52;;;;;;;0.68;70.33;96561.09;9785729;30;20089;-80
2021/12/11 01:16:30;;;;;;;17.95;12.75;;;;;;;0.71;70.81;96557.22;9798017;30;20068;-80
2021/12/11 01:21:59;;;;;;;16.65;11.30;;;;;;;0.84;70.38;96568.69;9785785;30;20496;-80
2021/12/11 01:27:23;;;;;;;17.42;12.13;;;;;;;0.84;70.41;96579.69;9785971;30;20136;-80
2021/12/11 01:32:44;;;;;;;17.80;12.95;;;;;;;0.94;70.24;96588.06;9785681;30;20063;-80
2021/12/11 01:38:10;;;;;;;19.58;12.80;;;;;;;0.96;70.54;96587.50;9785482;30;20409;-80
2021/12/11 01:43:32;;;;;;;17.35;12.38;;;;;;;0.97;69.84;96608.22;9784975;30;20055;-80
2021/12/11 01:49:00;;;;;;;18.95;13.40;;;;;;;0.81;69.99;96611.03;9785051;30;20060;-80
2021/12/11 01:54:27;;;;;;;15.40;11.50;;;;;;;0.75;69.49;96615.25;9784926;30;20052;-80
2021/12/11 01:59:57;;;;;;;17.85;12.10;;;;;;;0.72;69.85;96621.88;9784539;30;20069;-79
2021/12/11 02:05:21;;;;;;;18.42;12.48;;;;;;;0.71;69.99;96625.91;9786647;30;20548;-80
2021/12/11 02:10:43;;;;;;;18.10;12.73;;;;;;;0.65;69.70;96631.59;9778336;30;20432;-80
2021/12/11 02:16:05;;;;;;;17.75;12.48;;;;;;;0.62;69.89;96638.19;9804518;30;20572;-80
2021/12/11 02:21:32;;;;;;;18.77;12.57;;;;;;;0.49;69.83;96633.66;9791714;30;20053;-80
2021/12/11 02:26:54;;;;;;;19.58;12.82;;;;;;;0.50;69.91;96637.88;9791306;30;20053;-80
2021/12/11 02:32:18;;;;;;;18.70;12.52;;;;;;;0.53;69.61;96644.25;9803934;30;20401;-80
2021/12/11 02:37:45;;;;;;;18.27;12.00;;;;;;;0.49;69.93;96663.88;9789274;30;20085;-80
2021/12/11 02:43:17;;;;;;;18.00;12.57;;;;;;;0.40;69.78;96658.22;9791194;30;20434;-80
2021/12/11 02:49:03;;;;;;;18.58;12.18;;;;;;;0.43;69.96;96663.31;9803069;30;20060;-80
2021/12/11 02:54:26;;;;;;;;;;;;;;;0.35;70.75;96670.09;9801387;30;20055;-80
2021/12/11 02:59:48;;;;;;;18.30;12.35;;;;;;;0.42;70.31;96680.34;9802744;30;20025;-80
2021/12/11 03:05:11;;;;;;;19.27;13.00;;;;;;;0.46;70.24;96686.91;9790418;30;20076;-80
2021/12/11 03:10:32;;;;;;;20.08;14.05;;;;;;;0.45;70.28;96695.72;9790873;30;20045;-80
2021/12/11 03:15:53;;;;;;;20.20;12.63;;;;;;;0.37;69.96;96703.97;9818707;30;20074;-80
2021/12/11 03:21:15;;;;;;;17.17;12.10;;;;;;;0.38;70.41;96704.69;9792515;30;20045;-80
2021/12/11 03:26:38;;;;;;;19.13;12.30;;;;;;;0.37;70.05;96703.22;9815250;30;20048;-80
2021/12/11 03:31:59;;;;;;;18.05;12.57;;;;;;;0.37;69.77;96714.94;9803563;30;20059;-80
2021/12/11 03:37:21;;;;;;;17.45;12.60;;;;;;;0.48;70.31;96717.31;9794224;30;22653;-80
2021/12/11 03:42:43;;;;;;;17.95;12.15;;;;;;;0.47;70.08;96739.81;9801307;30;20048;-80
2021/12/11 03:48:10;;;;;;;19.35;12.73;;;;;;;0.43;69.92;96733.97;9789807;30;20106;-80
2021/12/11 03:53:31;;;;;;;16.83;11.27;;;;;;;0.42;69.89;96755.22;9814911;30;20510;-80
2021/12/11 03:58:52;;;;;;;17.80;12.23;;;;;;;0.44;69.85;96751.91;9793569;30;20102;-80
2021/12/11 04:04:17;;;;;;;17.83;11.85;;;;;;;0.41;69.92;96761.25;9776285;30;20409;-80
2021/12/11 04:09:38;;;;;;;17.52;12.50;;;;;;;0.41;70.02;96780.47;9776354;30;20052;-80
2021/12/11 04:14:59;;;;;;;18.65;12.50;;;;;;;0.44;70.18;96773.88;9761866;30;20097;-80
2021/12/11 04:20:21;;;;;;;17.50;11.85;;;;;;;0.37;70.16;96771.88;9761056;30;20060;-80
2021/12/11 04:25:45;;;;;;;18.52;12.57;;;;;;;0.30;70.56;96775.34;9775753;30;20048;-80
2021/12/11 04:31:09;;;;;;;20.83;12.57;;;;;;;0.38;70.69;96778.81;9787197;30;20063;-80
2021/12/11 04:36:34;;;;;;;18.55;12.55;;;;;;;0.27;70.36;96788.16;9775484;30;20118;-79
2021/12/11 04:42:03;;;;;;;;;;;;;;;0.18;70.69;96797.66;9775590;30;20044;-80
2021/12/11 04:47:39;;;;;;;14.82;10.32;;;;;;;0.27;70.91;96805.34;9798139;30;19949;-80
2021/12/11 04:53:01;;;;;;;19.80;12.43;;;;;;;0.31;70.61;96813.25;9777700;30;20048;-79
2021/12/11 05:04:18;;;;;;;17.27;11.45;;;;;;;0.26;70.56;96827.84;9777123;30;20055;-80
2021/12/11 05:09:53;;;;;;;16.67;10.95;;;;;;;0.37;70.81;96846.00;9779491;30;20136;-80
2021/12/11 05:15:20;;;;;;;17.48;11.55;;;;;;;0.41;70.60;96844.34;9775701;30;20199;-80
2021/12/11 05:20:42;;;;;;;18.27;11.18;;;;;;;0.52;70.70;96857.00;9773860;30;20504;-80
2021/12/11 05:26:03;;;;;;;20.88;13.27;;;;;;;0.61;70.75;96872.19;9773920;30;20135;-80
2021/12/11 05:31:25;;;;;;;18.38;12.10;;;;;;;0.64;70.58;96866.34;9773608;30;20052;-79
2021/12/11 05:36:46;;;;;;;16.85;10.57;;;;;;;0.69;70.06;96876.41;9773500;30;20075;-80
2021/12/11 05:42:07;;;;;;;17.55;11.25;;;;;;;0.67;70.14;96883.72;9789645;30;20048;-80
2021/12/11 05:47:28;;;;;;;19.45;12.30;;;;;;;0.73;70.51;96890.50;9788909;30;20068;-80
2021/12/11 05:52:50;;;;;;;17.95;12.57;;;;;;;0.83;70.63;96898.94;9801305;30;20112;-80
2021/12/11 05:58:13;;;;;;;18.85;12.40;;;;;;;0.85;70.24;96910.09;9799277;30;20054;-80
2021/12/11 06:03:37;;;;;;;22.00;12.77;;;;;;;0.83;70.42;96929.88;9785647;30;20114;-80
2021/12/11 06:08:58;;;;;;;19.37;11.97;;;;;;;0.76;69.94;96925.13;9773727;30;20057;-80
2021/12/11 06:14:20;;;;;;;20.23;12.80;;;;;;;0.70;69.89;96952.03;9773174;30;20052;-80
2021/12/11 06:19:49;;;;;;;19.95;12.65;;;;;;;0.76;70.47;96954.59;9775541;30;20064;-80
2021/12/11 06:25:13;;;;;;;22.58;12.18;;;;;;;0.82;70.04;96964.16;9783689;30;20044;-80
2021/12/11 06:30:34;;;;;;;18.70;12.27;;;;;;;0.81;70.35;96964.69;9821505;30;20052;-80
2021/12/11 06:36:03;;;;;;;21.75;13.57;;;;;;;0.81;70.40;96979.16;9820683;30;20044;-80
2021/12/11 06:41:27;;;;;;;22.20;13.27;;;;;;;0.76;70.00;96984.81;9815831;30;20059;-80
2021/12/11 06:46:53;;;;;;;18.97;12.80;;;;;;;0.78;70.21;96993.28;9784438;30;20139;-80
2021/12/11 06:52:17;;;;;;;20.50;12.38;;;;;;;0.80;70.14;96994.19;9800395;30;20063;-80
2021/12/11 06:57:39;;;;;;;21.00;13.18;;;;;;;0.88;69.82;97001.72;9779195;30;20087;-80
2021/12/11 07:03:00;;;;;;;23.17;13.85;;;;;;;0.82;69.71;97012.88;9803747;30;20048;-81
2021/12/11 07:08:23;;;;;;;20.45;12.95;;;;;;;0.79;69.72;97022.22;9803297;30;20048;-80
2021/12/11 07:13:44;;;;;;;21.75;13.93;;;;;;;0.90;69.92;97021.13;9790807;30;20051;-78
2021/12/11 07:19:06;;;;;;;18.95;12.57;;;;;;;0.99;70.12;97034.34;9812612;30;20060;-78
2021/12/11 07:24:32;;;;;;;20.27;12.98;;;;;;;1.01;69.96;97060.00;9812555;30;20165;-78
2021/12/11 07:29:53;;;;;;;20.90;13.45;;;;;;;1.13;69.75;97068.63;9790884;30;20053;-78
2021/12/11 07:35:14;;;;;;;20.10;13.35;;;;;;;1.21;69.48;97087.88;9789504;30;20076;-77
2021/12/11 07:40:46;;;;;;;20.38;13.43;;;;;;;1.21;69.39;97094.13;9788966;30;20580;-78
2021/12/11 07:46:08;;;;;;;24.45;14.82;;;;;;;1.26;69.61;97106.22;9789668;30;20057;-78
2021/12/11 07:51:29;;;;;;;22.63;14.88;;;;;;;1.36;69.49;97109.91;9789793;30;20420;-78
2021/12/11 07:56:53;;;;;;;22.15;13.65;;;;;;;1.46;69.49;97123.84;9789124;30;20056;-78
2021/12/11 08:02:15;;;;;;;22.92;14.20;;;;;;;1.54;69.68;97132.84;9800154;30;20048;-78
2021/12/11 08:07:36;;;;;;;23.17;14.68;;;;;;;1.61;69.24;97146.59;9788697;30;20048;-78
2021/12/11 08:12:58;;;;;;;24.60;15.63;;;;;;;1.73;69.40;97144.22;9789543;30;20101;-78
2021/12/11 08:18:20;;;;;;;24.75;14.85;;;;;;;1.82;68.85;97153.94;9791556;30;20072;-79
2021/12/11 08:23:44;;;;;;;24.48;14.70;;;;;;;1.89;69.31;97167.72;9801840;30;20044;-78
2021/12/11 08:29:05;;;;;;;24.65;15.45;;;;;;;1.94;68.76;97172.31;9789636;30;20052;-78
2021/12/11 08:34:26;;;;;;;24.17;15.65;;;;;;;2.01;69.11;97190.84;9800372;30;20139;-78
2021/12/11 08:39:48;;;;;;;23.77;15.30;;;;;;;2.11;68.26;97193.03;9787875;30;20048;-78
2021/12/11 08:45:11;;;;;;;31.13;15.95;;;;;;;2.18;68.34;97200.56;9788035;30;20182;-78
2021/12/11 08:50:32;;;;;;;21.20;13.75;;;;;;;2.18;68.62;97212.31;9788400;30;20056;-79
2021/12/11 08:55:56;;;;;;;26.80;15.50;;;;;;;2.18;68.28;97230.88;9800832;30;20053;-78
2021/12/11 09:01:24;;;;;;;24.55;15.68;;;;;;;2.26;68.13;97243.34;9796036;30;20053;-82
2021/12/11 09:06:49;;;;;;;25.00;15.70;;;;;;;2.40;67.89;97248.66;9834912;30;20037;-82
2021/12/11 09:12:22;;;;;;;23.13;14.65;;;;;;;2.54;68.18;97258.97;10314141;24;20072;-80
2021/12/11 09:17:47;;;;;;;26.33;16.02;;;;;;;2.70;67.90;97272.72;9889291;30;20119;-82
2021/12/11 09:23:13;;;;;;;26.00;16.88;;;;;;;2.80;68.07;97282.66;9895861;30;20047;-82
2021/12/11 09:28:41;;;;;;;26.50;16.83;;;;;;;2.81;67.49;97286.13;9884500;30;20062;-82
2021/12/11 09:34:08;;;;;;;26.15;17.45;;;;;;;2.89;67.40;97292.34;9883600;30;20524;-82
2021/12/11 09:39:42;;;;;;;25.92;16.17;;;;;;;3.03;67.17;97306.69;9894822;30;20098;-80
2021/12/11 09:45:34;;;;;;;26.80;17.00;;;;;;;2.95;67.12;97305.94;9906368;29;20048;-85
2021/12/11 09:51:01;;;;;;;27.02;17.33;;;;;;;2.80;67.12;97309.47;9901292;30;20099;-84
2021/12/11 09:56:35;;;;;;;25.98;16.52;;;;;;;2.86;67.34;97321.03;9923747;29;20060;-85
2021/12/11 10:02:00;;;;;;;25.30;16.60;;;;;;;2.93;66.64;97333.34;9874407;30;20063;-77
2021/12/11 10:07:29;;;;;;;28.80;17.75;;;;;;;2.96;66.66;97340.50;9888958;29;20059;-85
2021/12/11 10:12:53;;;;;;;26.08;16.02;;;;;;;3.10;66.90;97350.78;9847243;30;20079;-85
2021/12/11 10:18:17;;;;;;;28.98;19.38;;;;;;;3.24;66.67;97361.59;10879128;24;20034;-84
2021/12/11 10:23:39;;;;;;;28.63;17.93;;;;;;;3.41;65.68;97370.03;9809441;30;20076;-84
2021/12/11 10:29:05;;;;;;;23.70;14.45;;;;;;;3.32;65.54;97381.66;9885341;24;20153;-79
2021/12/11 10:34:28;;;;;;;26.42;17.17;;;;;;;3.23;65.34;97385.69;9820235;30;20049;-78
2021/12/11 10:39:53;;;;;;;22.60;14.38;;;;;;;3.17;65.15;97394.16;9813560;30;20488;-79
2021/12/11 10:45:14;;;;;;;18.73;12.65;;;;;;;3.32;64.81;97398.19;9836024;30;20446;-78
2021/12/11 10:50:49;;;;;;;21.75;13.65;;;;;;;3.57;65.08;97406.59;9810643;30;20047;-78
2021/12/11 10:56:10;;;;;;;19.43;12.53;;;;;;;3.82;64.64;97418.50;9867120;30;20068;-82
2021/12/11 11:01:35;;;;;;;22.00;14.48;;;;;;;4.03;64.04;97421.72;9834387;30;20028;-83
2021/12/11 11:06:56;;;;;;;17.73;11.70;;;;;;;4.23;64.03;97428.28;9838757;29;20058;-79
2021/12/11 11:18:39;;;;;;;15.80;9.00;;;;;;;4.38;62.96;97440.56;9766655;30;20054;-81
2021/12/11 11:30:38;;;;;;;14.23;8.80;;;;;;;4.42;62.40;97435.38;9786983;30;19961;-83
2021/12/11 11:36:00;;;;;;;13.05;8.30;;;;;;;4.55;62.31;97448.97;9814341;30;20066;-84
2021/12/11 11:41:24;;;;;;;11.90;7.18;;;;;;;4.66;61.68;97461.63;10127987;24;20064;-81
2021/12/11 11:46:46;;;;;;;12.95;8.20;;;;;;;4.70;60.96;97470.25;9867726;30;20052;-82
2021/12/11 11:52:11;;;;;;;16.02;8.73;;;;;;;4.67;61.02;97471.38;9848278;30;20052;-79
2021/12/11 11:57:36;;;;;;;15.03;9.73;;;;;;;4.53;61.00;97479.91;9841934;30;20052;-78
2021/12/11 12:02:57;;;;;;;12.82;8.18;;;;;;;4.45;59.77;97492.31;9813843;30;20407;-80
2021/12/11 12:08:18;;;;;;;12.30;6.97;;;;;;;4.40;60.41;97498.78;9782594;30;20403;-80
2021/12/11 12:13:39;;;;;;;13.05;8.20;;;;;;;4.35;60.87;97508.00;9766856;30;20053;-80
2021/12/11 12:19:22;;;;;;;13.88;8.68;;;;;;;4.15;60.70;97524.28;9772010;30;20489;-81
2021/12/11 12:24:43;;;;;;;17.27;10.57;;;;;;;3.97;60.74;97519.91;9779321;30;20057;-81
2021/12/11 12:30:08;;;;;;;18.48;11.10;;;;;;;3.88;60.26;97539.81;9779301;30;20055;-80
2021/12/11 12:35:29;;;;;;;;;;;;;;;3.75;60.69;97549.00;9768000;30;20049;-80
2021/12/11 12:41:00;;;;;;;16.10;10.68;;;;;;;3.75;60.48;97551.75;9800453;30;20025;-79
2021/12/11 12:46:30;;;;;;;21.52;12.45;;;;;;;3.70;60.26;97558.97;9810692;30;20059;-80
2021/12/11 12:51:51;;;;;;;20.02;11.82;;;;;;;3.76;60.85;97560.78;9776851;30;20076;-80
2021/12/11 12:57:18;;;;;;;19.92;13.75;;;;;;;3.80;60.52;97574.97;9765237;30;20057;-80
2021/12/11 13:02:40;;;;;;;22.20;13.75;;;;;;;3.61;60.20;97578.84;9796927;30;20068;-79
2021/12/11 13:08:10;;;;;;;25.13;15.52;;;;;;;3.62;60.43;97596.88;9813710;30;20044;-80
2021/12/11 13:13:31;;;;;;;25.27;16.27;;;;;;;3.63;61.11;97595.56;9801860;30;20059;-77
2021/12/11 13:19:06;;;;;;;25.10;16.50;;;;;;;3.71;61.01;97607.38;9811140;30;20048;-79
2021/12/11 13:24:27;;;;;;;24.70;17.05;;;;;;;3.72;61.33;97628.16;9799210;30;20053;-78
2021/12/11 13:29:52;;;;;;;26.75;17.13;;;;;;;3.67;60.70;97650.44;9798326;30;20048;-78
2021/12/11 13:35:20;;;;;;;30.17;18.17;;;;;;;3.61;61.26;97658.88;9811787;30;20464;-78
2021/12/11 13:40:44;;;;;;;27.02;18.67;;;;;;;3.55;61.43;97663.81;9798771;30;20530;-77
2021/12/11 13:46:06;;;;;;;33.23;20.10;;;;;;;3.49;61.32;97666.03;9800023;30;20131;-76
2021/12/11 13:51:29;;;;;;;33.45;20.10;;;;;;;3.45;61.36;97662.88;9815125;30;20062;-81
2021/12/11 13:56:53;;;;;;;30.98;19.13;;;;;;;3.38;60.93;97663.63;9854262;30;20059;-82
2021/12/11 14:09:09;;;;;;;35.03;19.48;;;;;;;3.19;61.40;97699.81;11936160;24;20047;31
2021/12/11 14:20:57;;;;;;;37.42;22.00;;;;;;;3.04;61.73;97722.53;11886654;24;20107;31
2021/12/11 14:26:24;;;;;;;38.00;22.63;;;;;;;2.99;61.99;97717.91;9794202;30;20040;-80
2021/12/11 14:31:47;;;;;;;34.08;22.00;;;;;;;2.97;61.83;97722.47;9761205;30;20048;-84
2021/12/11 14:37:10;;;;;;;31.80;20.08;;;;;;;2.96;61.89;97730.03;9760506;30;20048;-84
2021/12/11 14:42:36;;;;;;;30.73;19.80;;;;;;;2.94;61.72;97740.13;9754008;30;20069;-83
2021/12/11 14:47:59;;;;;;;30.45;19.42;;;;;;;2.93;61.58;97763.47;9759694;30;20053;-85
2021/12/11 14:53:24;;;;;;;29.92;19.23;;;;;;;2.91;61.64;97764.00;9747428;30;20073;-83
2021/12/11 14:58:46;;;;;;;32.17;19.63;;;;;;;2.87;62.14;97769.13;9759972;30;20060;-84
2021/12/11 15:04:12;;;;;;;31.17;19.08;;;;;;;2.91;61.78;97785.34;9763453;30;20105;-83
2021/12/11 15:09:36;;;;;;;34.58;19.55;;;;;;;2.77;62.26;97785.41;9745044;30;20062;-83
2021/12/11 15:15:19;;;;;;;30.02;19.05;;;;;;;2.76;62.18;97802.50;9757255;30;20093;-84
2021/12/11 15:20:57;;;;;;;33.70;20.38;;;;;;;2.75;62.43;97812.06;9766910;30;20068;-84
2021/12/11 15:26:21;;;;;;;;;;;;;;;2.79;62.84;97826.22;9765892;30;20046;-83
2021/12/11 15:31:46;;;;;;;32.40;20.20;;;;;;;2.77;62.62;97837.06;9775527;30;19999;-83
2021/12/11 15:37:10;;;;;;;31.85;19.60;;;;;;;2.75;62.26;97845.88;9761316;30;20060;-82
2021/12/11 15:42:32;;;;;;;32.95;19.67;;;;;;;2.79;62.47;97853.78;9746913;30;20056;-83
2021/12/11 15:47:54;;;;;;;31.30;20.23;;;;;;;2.76;62.29;97865.91;9763862;30;20063;-84
2021/12/11 15:53:16;;;;;;;36.67;21.58;;;;;;;2.72;62.71;97873.78;9762138;30;20053;-82
2021/12/11 15:58:39;;;;;;;37.88;22.42;;;;;;;2.76;62.65;97879.69;9735847;30;20069;-81
2021/12/11 16:04:07;;;;;;;38.40;22.75;;;;;;;2.76;62.59;97896.22;9723430;30;20077;-79
2021/12/11 16:09:29;;;;;;;38.78;23.30;;;;;;;2.78;63.24;97902.69;9749586;30;20057;-83
2021/12/11 16:14:51;;;;;;;46.63;25.98;;;;;;;2.77;63.16;97917.00;9757770;30;20109;-81
2021/12/11 16:20:13;;;;;;;38.45;23.77;;;;;;;2.77;63.08;97930.78;9770457;30;20049;-81
2021/12/11 16:25:34;;;;;;;37.55;22.80;;;;;;;2.77;63.04;97936.31;9760989;30;20062;-82
2021/12/11 16:30:56;;;;;;;36.67;22.77;;;;;;;2.75;63.20;97944.38;9755514;30;20112;-81
2021/12/11 16:36:17;;;;;;;34.67;21.60;;;;;;;2.72;62.94;97954.47;9763023;30;20085;-80
2021/12/11 16:41:42;;;;;;;34.33;20.23;;;;;;;2.72;63.23;97962.00;9761905;30;20049;-79
2021/12/11 16:47:09;;;;;;;35.75;21.25;;;;;;;2.73;63.32;97968.97;9755084;30;20050;-81
2021/12/11 16:52:30;;;;;;;35.90;21.27;;;;;;;2.70;63.81;97986.56;9766918;30;20053;-81
2021/12/11 16:57:51;;;;;;;33.38;19.63;;;;;;;2.69;63.58;97993.38;9764188;30;20127;-81
2021/12/11 17:03:12;;;;;;;37.03;19.65;;;;;;;2.67;63.62;98009.72;9763655;30;20049;-82
2021/12/11 17:08:33;;;;;;;41.08;24.63;;;;;;;2.65;63.13;98017.78;9774481;30;20084;-83
2021/12/11 17:26:31;;;;;;;30.67;19.77;;;;;;;2.67;63.65;98026.25;10154267;24;20044;-85
2021/12/11 17:31:55;;;;;;;30.70;19.10;;;;;;;2.65;63.64;98037.06;9857327;30;20044;-86
2021/12/11 17:37:18;;;;;;;29.40;18.98;;;;;;;2.69;62.99;98045.75;9829061;30;20060;-78
2021/12/11 17:42:39;;;;;;;32.63;19.88;;;;;;;2.69;63.52;98042.97;9834097;30;20054;-77
2021/12/11 17:48:02;;;;;;;29.33;18.25;;;;;;;2.67;63.69;98054.53;9822413;30;20052;-76
2021/12/11 17:53:22;;;;;;;29.48;18.08;;;;;;;2.68;63.58;98056.03;9809574;30;20060;-76
2021/12/11 17:58:47;;;;;;;28.10;17.13;;;;;;;2.66;63.61;98068.88;9821663;30;20412;-78
2021/12/11 18:04:16;;;;;;;25.60;16.52;;;;;;;2.64;63.21;98079.69;9838464;30;20048;-80
2021/12/11 18:09:40;;;;;;;25.13;16.60;;;;;;;2.67;63.74;98087.63;9863930;30;20048;-83
2021/12/11 18:15:24;;;;;;;22.87;15.03;;;;;;;2.65;63.46;98094.94;9831927;30;20063;-81
2021/12/11 18:20:54;;;;;;;19.70;12.43;;;;;;;2.64;63.23;98104.50;9867635;29;20064;-81
2021/12/11 18:26:21;;;;;;;19.33;12.07;;;;;;;2.61;63.24;98116.59;9869520;30;20092;-81
2021/12/11 18:31:43;;;;;;;17.80;11.57;;;;;;;2.61;62.95;98109.06;9884245;30;20047;-81
2021/12/11 18:37:08;;;;;;;16.30;11.23;;;;;;;2.59;63.29;98120.59;9879222;30;20055;-80
2021/12/11 18:42:31;;;;;;;15.70;10.25;;;;;;;2.64;62.85;98123.78;9873793;30;20500;-78
2021/12/11 18:47:51;;;;;;;17.13;10.70;;;;;;;2.65;63.31;98133.53;9851227;30;20055;-80
2021/12/11 18:53:14;;;;;;;19.02;11.75;;;;;;;2.68;62.99;98137.97;9874154;30;20062;-79
2021/12/11 18:58:37;;;;;;;15.65;9.80;;;;;;;2.69;63.09;98151.22;9856741;30;20063;-80
2021/12/11 19:04:03;;;;;;;16.97;11.07;;;;;;;2.66;62.46;98157.81;9871646;30;20487;-80
2021/12/11 19:09:25;;;;;;;16.30;10.48;;;;;;;2.66;62.60;98157.81;9882878;30;20076;-79
2021/12/11 19:14:49;;;;;;;12.20;7.88;;;;;;;2.66;62.32;98168.09;9857251;30;20055;-80
2021/12/11 19:20:11;;;;;;;12.25;7.72;;;;;;;2.72;61.90;98179.78;9863883;30;20048;-79
2021/12/11 19:25:32;;;;;;;12.93;7.80;;;;;;;2.73;61.93;98186.75;9869495;29;20396;-79
2021/12/11 19:30:55;;;;;;;14.48;8.50;;;;;;;2.72;62.04;98190.78;9887304;30;20047;-79
2021/12/11 19:36:18;;;;;;;14.82;9.38;;;;;;;2.68;62.19;98193.13;9887528;30;20047;-78
2021/12/11 19:41:39;;;;;;;14.63;9.05;;;;;;;2.68;62.56;98199.38;9899350;29;20483;-78
2021/12/11 19:47:03;;;;;;;12.88;8.48;;;;;;;2.67;62.42;98213.69;9887755;30;20051;-78
2021/12/11 19:52:26;;;;;;;12.25;7.85;;;;;;;2.64;62.00;98214.75;9899189;29;20074;-78
2021/12/11 19:57:47;;;;;;;9.18;6.60;;;;;;;2.67;62.16;98230.22;9899100;29;20078;-78
2021/12/11 20:03:10;;;;;;;12.05;7.65;;;;;;;2.62;62.63;98229.06;9898455;30;20052;-78
2021/12/11 20:08:33;;;;;;;10.02;6.45;;;;;;;2.65;62.34;98230.75;9896219;30;20066;-78
2021/12/11 20:13:55;;;;;;;9.35;6.85;;;;;;;2.69;61.57;98241.47;9886105;30;20051;-78
2021/12/11 20:19:19;;;;;;;10.88;7.20;;;;;;;2.71;61.92;98247.22;9885506;29;20050;-78
2021/12/11 20:24:41;;;;;;;;;;;;;;;2.70;61.63;98246.47;9873474;29;20437;-78
2021/12/11 20:30:11;;;;;;;11.15;7.00;;;;;;;2.67;61.66;98250.25;9897768;29;19953;-78
2021/12/11 20:35:32;;;;;;;10.85;7.25;;;;;;;2.67;61.93;98260.53;9897177;29;20039;-78
2021/12/11 20:40:55;;;;;;;10.35;6.88;;;;;;;2.65;61.79;98265.84;9889078;30;20481;-80
2021/12/11 20:46:16;;;;;;;12.03;7.43;;;;;;;2.60;61.94;98275.69;9896310;30;20510;-79
2021/12/11 20:51:40;;;;;;;11.57;7.13;;;;;;;2.65;61.41;98294.16;9915259;29;20101;-79
2021/12/11 20:57:01;;;;;;;13.68;7.38;;;;;;;2.69;61.31;98308.34;9886313;30;20534;-79
2021/12/11 21:02:23;;;;;;;11.48;7.05;;;;;;;2.67;61.46;98307.41;9885226;29;20539;-79
2021/12/11 21:07:49;;;;;;;11.95;7.15;;;;;;;2.61;61.39;98302.00;9885463;30;20411;-79
2021/12/11 21:13:17;;;;;;;11.13;6.57;;;;;;;2.61;61.24;98317.81;9877207;29;20108;-81
2021/12/11 21:18:42;;;;;;;9.57;5.53;;;;;;;2.60;61.34;98328.06;9899248;29;20531;-81
2021/12/11 21:24:17;;;;;;;8.00;5.00;;;;;;;2.61;60.80;98331.59;9909173;30;20496;-81
2021/12/11 21:29:46;;;;;;;9.63;4.80;;;;;;;2.63;60.56;98331.78;9924539;29;20055;-81
2021/12/11 21:35:09;;;;;;;7.43;4.05;;;;;;;2.64;61.07;98342.28;9915831;29;20061;-87
2021/12/11 21:40:40;;;;;;;7.38;5.05;;;;;;;2.64;60.78;98347.81;9916233;29;20124;-79
2021/12/11 21:46:23;;;;;;;6.20;4.05;;;;;;;2.67;60.14;98363.28;9879958;29;20058;-80
2021/12/11 21:51:58;;;;;;;9.82;4.95;;;;;;;2.63;59.93;98362.84;9870448;30;20051;-79
2021/12/11 21:57:22;;;;;;;8.35;5.22;;;;;;;2.59;61.45;98362.41;9891576;29;20043;-80
2021/12/11 22:02:47;;;;;;;10.73;6.43;;;;;;;2.56;60.82;98369.72;9901949;29;20052;-80
2021/12/11 22:08:09;;;;;;;9.38;5.75;;;;;;;2.57;60.88;98373.97;9889593;29;20042;-80
2021/12/11 22:13:30;;;;;;;8.73;5.57;;;;;;;2.63;60.56;98389.69;9892151;29;20534;-79
2021/12/11 22:18:53;;;;;;;8.35;5.80;;;;;;;2.59;60.29;98396.22;9901487;29;20055;-80
2021/12/11 22:24:21;;;;;;;11.10;6.00;;;;;;;2.63;60.41;98408.97;9914192;29;20063;-79
2021/12/11 22:29:45;;;;;;;;;;;;;;;2.59;59.73;98414.78;9928156;29;20051;-79
2021/12/11 22:35:11;;;;;;;12.75;7.53;;;;;;;2.57;60.57;98409.78;9930744;29;19926;-80
2021/12/11 22:40:38;;;;;;;12.00;7.30;;;;;;;2.55;60.93;98417.09;9886307;29;20051;-80
2021/12/11 22:46:00;;;;;;;14.35;7.43;;;;;;;2.59;60.58;98423.78;9900531;30;20055;-79
2021/12/11 22:51:24;;;;;;;13.60;8.68;;;;;;;2.58;60.36;98419.53;9889152;29;20122;-80
2021/12/11 22:56:47;;;;;;;;;;;;;;;2.54;59.62;98421.88;9873788;29;20047;-80
2021/12/11 23:02:23;;;;;;;11.32;7.85;;;;;;;2.53;60.51;98425.91;9918779;24;19932;-80
2021/12/11 23:07:50;;;;;;;13.93;9.02;;;;;;;2.52;60.55;98421.66;9901519;30;20047;-80
2021/12/11 23:13:23;;;;;;;14.52;9.50;;;;;;;2.52;60.83;98413.38;9875777;30;20490;-80
2021/12/11 23:19:08;;;;;;;19.77;10.70;;;;;;;2.47;60.48;98408.69;9888235;30;20059;-79
2021/12/11 23:24:35;;;;;;;15.65;9.70;;;;;;;2.49;60.54;98417.19;9885616;30;20055;-80
2021/12/11 23:30:07;;;;;;;14.75;9.73;;;;;;;2.49;60.74;98414.41;9899910;30;20062;-80
2021/12/11 23:35:41;;;;;;;16.60;10.55;;;;;;;2.47;60.65;98402.44;9911958;29;20052;-80
2021/12/11 23:41:07;;;;;;;15.82;9.98;;;;;;;2.48;61.40;98409.44;9912055;30;20108;-79
2021/12/11 23:46:28;;;;;;;15.45;9.20;;;;;;;2.49;61.20;98413.69;9886868;30;20510;-80
2021/12/11 23:51:49;;;;;;;13.15;8.80;;;;;;;2.48;60.57;98417.69;9899302;30;20063;-80
2021/12/11 23:57:18;;;;;;;12.90;8.68;;;;;;;2.46;60.84;98417.50;9899265;30;20054;-80
